Wetterdaten: Woche 06.06.11 - 12.06.11 (KW23)
Datum Zeit Temp. A. Feuchte A. Luftdruck Regen Wind Richtung Taupunkt Windchill Windben
06.06.2011 00:00 20,4 C 78 % 1008,7 hPa 0,0 l/m 0,0 km/h N 16,3 C 20,4 C 0,4 km/h
06.06.2011 01:00 19,5 C 80 % 1008,1 hPa 0,0 l/m 0,0 km/h N 16,0 C 19,5 C 0,0 km/h
06.06.2011 02:00 18,5 C 81 % 1007,6 hPa 0,0 l/m 0,0 km/h N 15,1 C 18,5 C 0,0 km/h
06.06.2011 03:00 17,6 C 81 % 1007,8 hPa 0,0 l/m 0,0 km/h N 14,3 C 17,6 C 0,4 km/h
06.06.2011 04:00 17,2 C 81 % 1007,6 hPa 0,0 l/m 0,0 km/h N 13,9 C 17,2 C 0,0 km/h
06.06.2011 05:00 17,0 C 81 % 1007,7 hPa 0,0 l/m 0,0 km/h N 13,7 C 17,0 C 0,0 km/h
06.06.2011 06:00 17,3 C 81 % 1007,8 hPa 0,0 l/m 0,0 km/h N 13,9 C 17,3 C 0,0 km/h
06.06.2011 07:00 18,1 C 81 % 1007,8 hPa 0,0 l/m 0,0 km/h N 14,7 C 18,1 C 0,8 km/h
06.06.2011 08:00 19,9 C 80 % 1007,7 hPa 0,0 l/m 0,6 km/h S-SW 16,3 C 19,9 C 6,1 km/h
06.06.2011 09:00 22,4 C 71 % 1007,6 hPa 0,0 l/m 0,9 km/h NO 16,9 C 22,4 C 8,1 km/h
06.06.2011 10:00 23,9 C 65 % 1007,5 hPa 0,0 l/m 1,4 km/h SO 16,8 C 23,9 C 13,7 km/h
06.06.2011 11:00 26,0 C 57 % 1007,1 hPa 0,0 l/m 2,2 km/h O-SO 16,7 C 26,0 C 12,9 km/h
06.06.2011 12:00 29,2 C 46 % 1006,4 hPa 0,0 l/m 3,2 km/h N-NO 16,4 C 29,2 C 19,3 km/h
06.06.2011 13:00 29,6 C 42 % 1005,9 hPa 0,0 l/m 7,2 km/h S-SW 15,2 C 29,4 C 24,5 km/h
06.06.2011 14:00 29,7 C 43 % 1005,8 hPa 0,0 l/m 5,1 km/h O-NO 15,8 C 29,7 C 25,8 km/h
06.06.2011 15:00 30,4 C 41 % 1005,0 hPa 0,0 l/m 5,1 km/h W-SW 15,7 C 30,4 C 22,9 km/h
06.06.2011 16:00 30,4 C 41 % 1004,8 hPa 0,0 l/m 4,4 km/h S 15,7 C 30,4 C 20,5 km/h
06.06.2011 17:00 30,7 C 40 % 1004,7 hPa 0,0 l/m 3,1 km/h O-SO 15,3 C 30,7 C 16,9 km/h
06.06.2011 18:00 28,3 C 44 % 1004,9 hPa 0,0 l/m 4,8 km/h S-SW 14,9 C 28,3 C 22,5 km/h
06.06.2011 19:00 26,5 C 50 % 1004,9 hPa 0,0 l/m 3,3 km/h S 15,3 C 26,5 C 16,5 km/h
06.06.2011 20:00 24,9 C 54 % 1005,1 hPa 0,0 l/m 4,5 km/h S 14,9 C 24,9 C 19,7 km/h
06.06.2011 21:00 23,7 C 59 % 1006,1 hPa 0,0 l/m 3,6 km/h S-SW 15,0 C 23,7 C 16,5 km/h
06.06.2011 22:00 22,8 C 63 % 1006,4 hPa 0,0 l/m 5,3 km/h S-SO 15,3 C 22,7 C 20,9 km/h
06.06.2011 23:00 21,9 C 66 % 1005,8 hPa 0,0 l/m 3,9 km/h S 15,2 C 21,9 C 18,1 km/h
07.06.2011 00:00 21,2 C 68 % 1005,9 hPa 0,0 l/m 0,4 km/h S-SO 15,0 C 21,2 C 4,4 km/h
07.06.2011 01:00 19,6 C 72 % 1006,2 hPa 0,0 l/m 0,1 km/h N 14,4 C 19,6 C 1,6 km/h
07.06.2011 02:00 18,1 C 75 % 1006,5 hPa 0,0 l/m 0,2 km/h N 13,6 C 18,1 C 2,4 km/h
07.06.2011 03:00 17,4 C 74 % 1006,8 hPa 0,0 l/m 0,0 km/h N 12,7 C 17,4 C 0,8 km/h
07.06.2011 04:00 16,7 C 75 % 1006,7 hPa 0,0 l/m 0,0 km/h N 12,3 C 16,7 C 0,0 km/h
07.06.2011 05:00 16,3 C 78 % 1006,9 hPa 0,0 l/m 0,0 km/h N 12,4 C 16,3 C 0,4 km/h
07.06.2011 06:00 16,5 C 80 % 1007,3 hPa 0,0 l/m 0,0 km/h N 13,1 C 16,5 C 0,0 km/h
07.06.2011 07:00 17,3 C 79 % 1007,4 hPa 0,0 l/m 0,0 km/h N 13,5 C 17,3 C 0,8 km/h
07.06.2011 08:00 19,4 C 74 % 1007,7 hPa 0,0 l/m 0,2 km/h N 14,7 C 19,4 C 2,4 km/h
07.06.2011 09:00 21,8 C 70 % 1007,6 hPa 0,0 l/m 0,4 km/h N 16,0 C 21,8 C 3,2 km/h
07.06.2011 10:00 24,3 C 60 % 1007,5 hPa 0,0 l/m 1,1 km/h O 15,9 C 24,3 C 5,2 km/h
07.06.2011 11:00 27,0 C 52 % 1007,2 hPa 0,0 l/m 1,1 km/h O-NO 16,4 C 27,0 C 5,2 km/h
07.06.2011 12:00 28,6 C 48 % 1006,7 hPa 0,0 l/m 1,1 km/h O 16,5 C 28,6 C 5,2 km/h
07.06.2011 13:00 29,4 C 46 % 1006,2 hPa 0,0 l/m 1,7 km/h O-SO 16,6 C 29,4 C 10,0 km/h
07.06.2011 14:00 31,1 C 43 % 1005,7 hPa 0,0 l/m 2,3 km/h N-NO 17,0 C 31,1 C 13,3 km/h
07.06.2011 15:00 31,4 C 42 % 1005,3 hPa 0,0 l/m 2,5 km/h S 16,9 C 31,4 C 15,7 km/h
07.06.2011 16:00 31,4 C 40 % 1004,9 hPa 0,0 l/m 3,0 km/h O 16,2 C 31,4 C 14,9 km/h
07.06.2011 17:00 30,7 C 46 % 1004,7 hPa 0,0 l/m 2,0 km/h O 17,6 C 30,7 C 14,5 km/h
07.06.2011 18:00 26,8 C 58 % 1004,9 hPa 0,0 l/m 1,7 km/h O 17,7 C 26,8 C 7,6 km/h
07.06.2011 19:00 24,4 C 65 % 1005,0 hPa 0,0 l/m 0,6 km/h N 17,4 C 24,4 C 4,4 km/h
07.06.2011 20:00 23,3 C 69 % 1005,2 hPa 0,0 l/m 0,5 km/h S-SW 17,3 C 23,3 C 5,6 km/h
07.06.2011 21:00 21,9 C 77 % 1004,8 hPa 0,3 l/m 0,7 km/h S-SO 17,6 C 21,9 C 5,2 km/h
07.06.2011 22:00 20,8 C 80 % 1004,1 hPa 0,0 l/m 0,2 km/h N 17,2 C 20,8 C 3,2 km/h
07.06.2011 23:00 20,3 C 81 % 1003,9 hPa 0,0 l/m 0,8 km/h S-SO 17,0 C 20,3 C 6,1 km/h
08.06.2011 00:00 20,1 C 81 % 1004,1 hPa 0,5 l/m 2,6 km/h S-SW 16,7 C 20,1 C 16,1 km/h
08.06.2011 01:00 18,0 C 81 % 1004,3 hPa 5,2 l/m 1,9 km/h S-SW 14,7 C 18,0 C 9,3 km/h
08.06.2011 02:00 17,6 C 80 % 1003,3 hPa 0,0 l/m 0,4 km/h N 14,1 C 17,6 C 5,3 km/h
08.06.2011 03:00 17,3 C 80 % 1002,7 hPa 0,0 l/m 0,0 km/h N 13,8 C 17,3 C 2,0 km/h
08.06.2011 04:00 17,1 C 80 % 1002,5 hPa 0,0 l/m 1,0 km/h S 13,6 C 17,1 C 10,1 km/h
08.06.2011 05:00 16,9 C 80 % 1002,6 hPa 0,0 l/m 1,4 km/h NW 13,4 C 16,9 C 9,6 km/h
08.06.2011 06:00 16,8 C 80 % 1002,9 hPa 0,0 l/m 0,1 km/h N 13,4 C 16,8 C 2,8 km/h
08.06.2011 07:00 17,3 C 79 % 1003,3 hPa 0,0 l/m 0,4 km/h N 13,7 C 17,3 C 6,4 km/h
08.06.2011 08:00 18,3 C 80 % 1003,0 hPa 0,0 l/m 0,6 km/h SW 14,7 C 18,3 C 5,6 km/h
08.06.2011 09:00 19,9 C 80 % 1002,8 hPa 0,0 l/m 2,6 km/h S 16,4 C 19,9 C 13,3 km/h
08.06.2011 10:00 22,0 C 75 % 1002,3 hPa 0,0 l/m 1,5 km/h S-SO 17,4 C 22,0 C 10,9 km/h
08.06.2011 11:00 24,4 C 71 % 1002,5 hPa 0,0 l/m 0,4 km/h N 18,7 C 24,4 C 3,6 km/h
08.06.2011 12:00 27,7 C 58 % 1002,2 hPa 0,0 l/m 0,3 km/h N 18,7 C 27,7 C 2,8 km/h
08.06.2011 13:00 25,0 C 64 % 1003,0 hPa 28,3 l/m 2,7 km/h SO 17,5 C 24,6 C 9,7 km/h
08.06.2011 14:00 19,2 C 80 % 1003,0 hPa 7,0 l/m 0,1 km/h N 15,7 C 19,2 C 1,6 km/h
08.06.2011 15:00 22,6 C 80 % 1002,1 hPa 0,0 l/m 0,2 km/h N 18,9 C 22,6 C 2,0 km/h
08.06.2011 16:00 27,3 C 61 % 1001,6 hPa 0,0 l/m 0,3 km/h N 19,1 C 27,3 C 3,2 km/h
08.06.2011 17:00 28,2 C 53 % 1001,2 hPa 0,0 l/m 0,4 km/h N 17,7 C 28,2 C 3,2 km/h
08.06.2011 18:00 24,5 C 62 % 1001,9 hPa 10,4 l/m 2,0 km/h N-NW 16,6 C 24,5 C 11,3 km/h
08.06.2011 19:00 17,6 C 80 % 1003,5 hPa 3,4 l/m 2,6 km/h N 14,0 C 17,4 C 11,3 km/h
08.06.2011 20:00 17,8 C 81 % 1004,0 hPa 0,3 l/m 1,3 km/h SW 14,5 C 17,8 C 10,5 km/h
08.06.2011 21:00 17,6 C 81 % 1005,1 hPa 0,0 l/m 0,5 km/h N 14,3 C 17,6 C 4,0 km/h
08.06.2011 22:00 17,3 C 81 % 1005,5 hPa 0,0 l/m 0,1 km/h N 14,0 C 17,3 C 2,4 km/h
08.06.2011 23:00 17,1 C 81 % 1005,8 hPa 0,0 l/m 0,1 km/h N 13,8 C 17,1 C 1,2 km/h
09.06.2011 00:00 17,0 C 81 % 1006,0 hPa 0,0 l/m 0,0 km/h N 13,6 C 17,0 C 0,8 km/h
09.06.2011 01:00 17,2 C 81 % 1006,3 hPa 0,0 l/m 2,3 km/h N-NO 14,0 C 17,2 C 15,3 km/h
09.06.2011 02:00 17,0 C 80 % 1006,9 hPa 0,0 l/m 5,3 km/h W-SW 13,5 C 17,0 C 24,5 km/h
09.06.2011 03:00 15,8 C 78 % 1007,2 hPa 0,0 l/m 6,7 km/h W 11,9 C 15,6 C 26,5 km/h
09.06.2011 04:00 14,8 C 79 % 1007,6 hPa 0,3 l/m 7,4 km/h S-SW 11,2 C 14,2 C 28,9 km/h
09.06.2011 05:00 14,6 C 77 % 1008,3 hPa 0,0 l/m 5,0 km/h W 10,6 C 14,6 C 26,1 km/h
09.06.2011 06:00 14,5 C 78 % 1009,0 hPa 0,0 l/m 5,7 km/h NW 10,6 C 14,4 C 26,1 km/h
09.06.2011 07:00 14,6 C 78 % 1009,6 hPa 0,0 l/m 6,1 km/h SW 10,8 C 14,5 C 24,9 km/h
09.06.2011 08:00 14,9 C 79 % 1010,2 hPa 0,3 l/m 7,2 km/h S-SO 11,2 C 14,5 C 29,0 km/h
09.06.2011 09:00 14,8 C 79 % 1010,8 hPa 0,0 l/m 4,9 km/h NW 11,2 C 14,8 C 19,7 km/h
09.06.2011 10:00 15,7 C 75 % 1011,1 hPa 0,0 l/m 4,7 km/h N-NW 11,2 C 15,7 C 17,3 km/h
09.06.2011 11:00 16,7 C 71 % 1011,3 hPa 0,0 l/m 4,7 km/h W-NW 11,4 C 16,7 C 18,5 km/h
09.06.2011 12:00 17,9 C 67 % 1011,2 hPa 0,0 l/m 6,2 km/h S-SO 11,7 C 17,8 C 19,3 km/h
09.06.2011 13:00 18,9 C 62 % 1011,1 hPa 0,0 l/m 6,0 km/h N-NW 11,4 C 18,8 C 18,1 km/h
09.06.2011 14:00 20,6 C 54 % 1010,9 hPa 0,0 l/m 6,1 km/h NW 10,9 C 20,5 C 17,7 km/h
09.06.2011 15:00 20,8 C 53 % 1011,0 hPa 0,0 l/m 5,9 km/h N-NW 11,0 C 20,7 C 17,7 km/h
09.06.2011 16:00 21,4 C 50 % 1010,9 hPa 0,0 l/m 7,6 km/h N-NW 10,5 C 21,0 C 20,1 km/h
09.06.2011 17:00 21,3 C 51 % 1011,2 hPa 0,0 l/m 5,5 km/h N-NW 10,7 C 21,2 C 14,5 km/h
09.06.2011 18:00 20,1 C 58 % 1011,3 hPa 0,0 l/m 3,5 km/h N-NW 11,6 C 20,1 C 11,7 km/h
09.06.2011 19:00 19,3 C 61 % 1011,8 hPa 0,0 l/m 2,2 km/h N-NW 11,6 C 19,3 C 7,6 km/h
09.06.2011 20:00 18,2 C 64 % 1012,2 hPa 0,0 l/m 0,9 km/h N-NW 11,3 C 18,2 C 4,0 km/h
09.06.2011 21:00 16,9 C 67 % 1012,8 hPa 0,0 l/m 0,3 km/h N 10,7 C 16,9 C 2,4 km/h
09.06.2011 22:00 15,6 C 69 % 1013,2 hPa 0,0 l/m 0,1 km/h N 10,0 C 15,6 C 2,0 km/h
09.06.2011 23:00 15,2 C 72 % 1013,5 hPa 0,0 l/m 0,0 km/h N 10,1 C 15,2 C 0,0 km/h
10.06.2011 00:00 15,2 C 72 % 1013,4 hPa 0,0 l/m 0,0 km/h N 10,1 C 15,2 C 0,0 km/h
10.06.2011 01:00 15,3 C 71 % 1013,4 hPa 0,0 l/m 0,0 km/h N 10,1 C 15,3 C 0,0 km/h
10.06.2011 02:00 15,0 C 72 % 1013,3 hPa 0,0 l/m 0,0 km/h N 10,1 C 15,0 C 0,0 km/h
10.06.2011 03:00 14,9 C 72 % 1013,3 hPa 0,0 l/m 0,5 km/h NW 9,8 C 14,9 C 2,4 km/h
10.06.2011 04:00 14,4 C 73 % 1013,2 hPa 0,0 l/m 1,4 km/h NW 9,6 C 14,4 C 6,8 km/h
10.06.2011 05:00 14,3 C 72 % 1013,3 hPa 0,0 l/m 1,9 km/h NW 9,4 C 14,3 C 9,3 km/h
10.06.2011 06:00 14,8 C 69 % 1013,7 hPa 0,0 l/m 3,3 km/h N-NW 9,2 C 14,8 C 10,9 km/h
10.06.2011 07:00 15,9 C 67 % 1014,0 hPa 0,0 l/m 5,2 km/h NW 9,8 C 15,9 C 16,1 km/h
10.06.2011 08:00 16,6 C 65 % 1014,3 hPa 0,0 l/m 5,4 km/h NW 9,9 C 16,6 C 16,5 km/h
10.06.2011 09:00 17,7 C 61 % 1014,3 hPa 0,0 l/m 4,9 km/h N-NW 10,1 C 17,7 C 18,1 km/h
10.06.2011 10:00 19,5 C 53 % 1014,0 hPa 0,0 l/m 5,3 km/h NW 9,6 C 19,5 C 16,9 km/h
10.06.2011 11:00 21,0 C 49 % 1014,0 hPa 0,0 l/m 5,7 km/h N-NO 9,9 C 21,0 C 15,3 km/h
10.06.2011 12:00 22,7 C 46 % 1013,6 hPa 0,0 l/m 6,6 km/h N-NW 10,4 C 22,5 C 16,9 km/h
10.06.2011 13:00 23,5 C 43 % 1013,3 hPa 0,0 l/m 6,7 km/h N-NO 10,3 C 23,4 C 16,5 km/h
10.06.2011 14:00 24,2 C 41 % 1012,9 hPa 0,0 l/m 7,4 km/h NW 9,9 C 23,9 C 18,9 km/h
10.06.2011 15:00 24,8 C 41 % 1012,7 hPa 0,0 l/m 6,1 km/h N-NW 10,6 C 24,8 C 15,3 km/h
10.06.2011 16:00 24,2 C 42 % 1012,6 hPa 0,0 l/m 5,8 km/h N-NW 10,3 C 24,2 C 17,3 km/h
10.06.2011 17:00 23,3 C 44 % 1012,5 hPa 0,0 l/m 4,2 km/h N-NW 10,4 C 23,3 C 11,7 km/h
10.06.2011 18:00 22,2 C 46 % 1012,6 hPa 0,0 l/m 3,9 km/h N-NW 9,9 C 22,2 C 11,7 km/h
10.06.2011 19:00 21,3 C 49 % 1012,5 hPa 0,0 l/m 2,7 km/h N-NW 10,1 C 21,3 C 7,2 km/h
10.06.2011 20:00 19,9 C 54 % 1012,7 hPa 0,0 l/m 0,6 km/h N 10,3 C 19,9 C 3,2 km/h
10.06.2011 21:00 18,2 C 59 % 1013,4 hPa 0,0 l/m 0,1 km/h N 10,1 C 18,2 C 1,6 km/h
10.06.2011 22:00 16,6 C 64 % 1013,6 hPa 0,0 l/m 0,0 km/h N 9,7 C 16,6 C 0,4 km/h
10.06.2011 23:00 15,2 C 70 % 1013,5 hPa 0,0 l/m 0,0 km/h N 9,8 C 15,2 C 0,0 km/h
11.06.2011 00:00 14,5 C 73 % 1013,5 hPa 0,0 l/m 0,0 km/h N 9,7 C 14,5 C 0,0 km/h
11.06.2011 01:00 13,9 C 74 % 1013,6 hPa 0,0 l/m 0,0 km/h N 9,3 C 13,9 C 0,0 km/h
11.06.2011 02:00 13,3 C 77 % 1013,5 hPa 0,0 l/m 0,0 km/h N 9,3 C 13,3 C 2,4 km/h
11.06.2011 03:00 13,3 C 76 % 1013,5 hPa 0,0 l/m 0,3 km/h N 9,2 C 13,3 C 5,2 km/h
11.06.2011 04:00 13,1 C 76 % 1013,6 hPa 0,0 l/m 0,2 km/h N 9,0 C 13,1 C 3,6 km/h
11.06.2011 05:00 13,2 C 76 % 1013,8 hPa 0,0 l/m 0,7 km/h SW 9,0 C 13,2 C 5,2 km/h
11.06.2011 06:00 13,9 C 75 % 1014,1 hPa 0,0 l/m 0,8 km/h SW 9,4 C 13,9 C 5,2 km/h
11.06.2011 07:00 15,3 C 72 % 1014,5 hPa 0,0 l/m 1,4 km/h N-NW 10,2 C 15,3 C 5,6 km/h
11.06.2011 08:00 16,8 C 65 % 1014,5 hPa 0,0 l/m 1,3 km/h N-NO 10,1 C 16,8 C 6,4 km/h
11.06.2011 09:00 18,2 C 59 % 1014,6 hPa 0,0 l/m 1,7 km/h NO 9,9 C 18,2 C 6,0 km/h
11.06.2011 10:00 21,5 C 51 % 1014,3 hPa 0,0 l/m 2,6 km/h NO 10,8 C 21,5 C 8,1 km/h
11.06.2011 11:00 24,3 C 42 % 1014,1 hPa 0,0 l/m 3,1 km/h NO 10,4 C 24,3 C 10,5 km/h
11.06.2011 12:00 25,8 C 39 % 1013,8 hPa 0,0 l/m 4,0 km/h N-NW 10,7 C 25,8 C 10,0 km/h
11.06.2011 13:00 28,1 C 35 % 1013,6 hPa 0,0 l/m 4,0 km/h N-NO 11,3 C 28,1 C 12,5 km/h
11.06.2011 14:00 28,5 C 36 % 1013,2 hPa 0,0 l/m 3,8 km/h N 11,9 C 28,5 C 12,9 km/h
11.06.2011 15:00 28,4 C 34 % 1013,0 hPa 0,0 l/m 3,1 km/h N-NW 10,9 C 28,4 C 8,4 km/h
11.06.2011 16:00 26,8 C 38 % 1012,7 hPa 0,0 l/m 3,6 km/h NO 11,2 C 26,8 C 9,3 km/h
11.06.2011 17:00 27,0 C 38 % 1012,5 hPa 0,0 l/m 3,5 km/h N-NO 11,4 C 27,0 C 8,9 km/h
11.06.2011 18:00 27,3 C 38 % 1012,5 hPa 0,0 l/m 2,8 km/h N-NW 11,5 C 27,3 C 9,3 km/h
11.06.2011 19:00 24,7 C 44 % 1012,6 hPa 0,0 l/m 3,5 km/h NW 11,5 C 24,7 C 9,3 km/h
11.06.2011 20:00 23,1 C 49 % 1013,0 hPa 0,0 l/m 0,5 km/h N 11,7 C 23,1 C 2,4 km/h
11.06.2011 21:00 21,0 C 56 % 1013,7 hPa 0,0 l/m 0,9 km/h S-SW 11,8 C 21,0 C 4,0 km/h
11.06.2011 22:00 19,6 C 64 % 1014,3 hPa 0,0 l/m 2,3 km/h NW 12,6 C 19,6 C 9,3 km/h
11.06.2011 23:00 18,6 C 68 % 1014,6 hPa 0,0 l/m 1,8 km/h S-SO 12,7 C 18,6 C 10,4 km/h
12.06.2011 00:00 18,1 C 70 % 1014,9 hPa 0,0 l/m 1,3 km/h N-NW 12,5 C 18,1 C 8,0 km/h
12.06.2011 01:00 17,4 C 72 % 1015,0 hPa 0,0 l/m 1,1 km/h N 12,3 C 17,4 C 6,0 km/h
12.06.2011 02:00 17,0 C 74 % 1015,0 hPa 0,0 l/m 1,5 km/h O-SO 12,3 C 17,0 C 9,7 km/h
12.06.2011 03:00 16,7 C 75 % 1015,0 hPa 0,0 l/m 1,6 km/h O 12,2 C 16,7 C 13,3 km/h
12.06.2011 04:00 16,6 C 76 % 1015,1 hPa 0,0 l/m 2,3 km/h NW 12,2 C 16,6 C 12,1 km/h
12.06.2011 05:00 16,3 C 77 % 1015,3 hPa 0,0 l/m 1,8 km/h W-SW 12,2 C 16,3 C 12,5 km/h
12.06.2011 06:00 16,4 C 77 % 1015,8 hPa 0,0 l/m 1,0 km/h S 12,4 C 16,4 C 6,8 km/h
12.06.2011 07:00 16,9 C 76 % 1016,2 hPa 0,0 l/m 1,8 km/h S-SO 12,7 C 16,9 C 12,1 km/h
12.06.2011 08:00 17,8 C 73 % 1016,5 hPa 0,0 l/m 2,4 km/h S 12,9 C 17,8 C 15,7 km/h
12.06.2011 09:00 18,5 C 70 % 1016,9 hPa 0,0 l/m 4,8 km/h S-SO 12,8 C 18,5 C 20,5 km/h
12.06.2011 10:00 19,1 C 68 % 1017,0 hPa 0,0 l/m 4,7 km/h NW 13,0 C 19,1 C 20,9 km/h
12.06.2011 11:00 19,7 C 65 % 1017,4 hPa 0,0 l/m 5,3 km/h N-NW 12,9 C 19,7 C 20,9 km/h
12.06.2011 12:00 20,0 C 64 % 1017,6 hPa 0,0 l/m 2,9 km/h SW 13,0 C 20,0 C 14,1 km/h
12.06.2011 13:00 20,5 C 64 % 1017,2 hPa 0,0 l/m 4,4 km/h N-NW 13,4 C 20,5 C 19,7 km/h
12.06.2011 14:00 21,3 C 62 % 1016,8 hPa 0,0 l/m 5,8 km/h N-NW 13,7 C 21,1 C 20,5 km/h
12.06.2011 15:00 23,9 C 55 % 1016,4 hPa 0,0 l/m 5,6 km/h N 14,2 C 23,8 C 17,7 km/h
12.06.2011 16:00 24,4 C 53 % 1016,3 hPa 0,0 l/m 5,7 km/h N-NW 14,2 C 24,4 C 16,5 km/h
12.06.2011 17:00 23,7 C 55 % 1016,2 hPa 0,0 l/m 6,3 km/h S-SO 14,0 C 23,7 C 18,1 km/h
12.06.2011 18:00 22,7 C 58 % 1016,1 hPa 0,0 l/m 4,4 km/h N-NW 13,9 C 22,7 C 13,3 km/h
12.06.2011 19:00 21,3 C 62 % 1016,4 hPa 0,0 l/m 3,8 km/h NW 13,5 C 21,3 C 9,3 km/h
12.06.2011 20:00 19,4 C 69 % 1016,5 hPa 0,0 l/m 1,3 km/h NW 13,5 C 19,4 C 6,5 km/h
12.06.2011 21:00 18,0 C 76 % 1016,8 hPa 0,0 l/m 0,3 km/h N 13,6 C 18,0 C 2,0 km/h
12.06.2011 22:00 16,9 C 78 % 1017,2 hPa 0,0 l/m 0,0 km/h N 13,1 C 16,9 C 0,4 km/h
12.06.2011 23:00 16,2 C 80 % 1017,2 hPa 0,0 l/m 0,0 km/h N 12,7 C 16,2 C 0,0 km/h
Min-Datum _ 11.06.11 11.06.11 08.06.11 - 06.06.11 - 11.06.11 11.06.11 06.06.11
_ Min-Zeit 04:30 15:15 17:30 - 00:00 - 05:30 04:30 00:00
Minimum _ 13,0 C 31 % 1001,0 hPa - 0,0 km/h - 8,9 C 13,0 C 0,0 km/h
Max-Datum _ 07.06.11 09.06.11 12.06.11 08.06.11 06.06.11 - 08.06.11 07.06.11 09.06.11
_ Max-Zeit 15:00 01:30 12:00 13:45 13:30 - 15:45 15:00 08:15
Maximum _ 31,8 C 82 % 1017,7 hPa 28,3 l/m 10,4 km/h
S-SW
- 20,2 C 31,8 C 38,6 km/h
SW
Durchschnitt _ 20,4 C 65 % 1009,9 hPa #55,9 l/m 2,4 km/h N-NW 13,1 C 20,3 C 9,9 km/h